sensor_id;sensor_type;location;lat;lon;timestamp;P1;durP1;ratioP1;P2;durP2;ratioP2
71916;SDS011;59793;46.506;6.674;2023-09-19T00:01:27;4.43;;;1.13;;
71916;SDS011;59793;46.506;6.674;2023-09-19T00:03:55;4.30;;;1.23;;
71916;SDS011;59793;46.506;6.674;2023-09-19T00:06:22;3.30;;;1.55;;
71916;SDS011;59793;46.506;6.674;2023-09-19T00:08:51;2.65;;;1.25;;
71916;SDS011;59793;46.506;6.674;2023-09-19T00:11:16;2.67;;;1.50;;
71916;SDS011;59793;46.506;6.674;2023-09-19T00:13:42;2.20;;;0.90;;
71916;SDS011;59793;46.506;6.674;2023-09-19T00:16:08;2.78;;;1.30;;
71916;SDS011;59793;46.506;6.674;2023-09-19T00:18:38;2.30;;;1.10;;
71916;SDS011;59793;46.506;6.674;2023-09-19T00:21:03;3.70;;;1.33;;
71916;SDS011;59793;46.506;6.674;2023-09-19T00:23:32;2.85;;;1.20;;
71916;SDS011;59793;46.506;6.674;2023-09-19T00:25:58;8.47;;;1.13;;
71916;SDS011;59793;46.506;6.674;2023-09-19T00:28:24;1.85;;;0.98;;
71916;SDS011;59793;46.506;6.674;2023-09-19T00:30:50;5.07;;;1.47;;
71916;SDS011;59793;46.506;6.674;2023-09-19T00:33:15;2.93;;;1.30;;
71916;SDS011;59793;46.506;6.674;2023-09-19T00:35:51;3.65;;;0.80;;
71916;SDS011;59793;46.506;6.674;2023-09-19T00:38:17;2.67;;;1.20;;
71916;SDS011;59793;46.506;6.674;2023-09-19T00:40:46;3.33;;;1.35;;
71916;SDS011;59793;46.506;6.674;2023-09-19T00:43:13;3.13;;;1.02;;
71916;SDS011;59793;46.506;6.674;2023-09-19T00:45:38;4.50;;;1.00;;
71916;SDS011;59793;46.506;6.674;2023-09-19T00:48:08;2.90;;;1.10;;
71916;SDS011;59793;46.506;6.674;2023-09-19T00:50:34;3.60;;;0.95;;
71916;SDS011;59793;46.506;6.674;2023-09-19T00:53:00;2.85;;;1.10;;
71916;SDS011;59793;46.506;6.674;2023-09-19T00:55:26;2.85;;;1.15;;
71916;SDS011;59793;46.506;6.674;2023-09-19T00:57:55;3.13;;;1.38;;
71916;SDS011;59793;46.506;6.674;2023-09-19T01:00:21;6.25;;;1.42;;
71916;SDS011;59793;46.506;6.674;2023-09-19T01:02:48;2.13;;;1.10;;
71916;SDS011;59793;46.506;6.674;2023-09-19T01:05:14;2.00;;;0.77;;
71916;SDS011;59793;46.506;6.674;2023-09-19T01:07:40;3.60;;;1.27;;
71916;SDS011;59793;46.506;6.674;2023-09-19T01:10:06;2.43;;;1.00;;
71916;SDS011;59793;46.506;6.674;2023-09-19T01:15:15;3.10;;;1.00;;
71916;SDS011;59793;46.506;6.674;2023-09-19T01:18:00;2.95;;;1.10;;
71916;SDS011;59793;46.506;6.674;2023-09-19T01:23:10;2.10;;;1.08;;
71916;SDS011;59793;46.506;6.674;2023-09-19T01:25:50;3.22;;;1.00;;
71916;SDS011;59793;46.506;6.674;2023-09-19T01:28:31;4.22;;;1.25;;
71916;SDS011;59793;46.506;6.674;2023-09-19T01:31:03;1.92;;;1.33;;
71916;SDS011;59793;46.506;6.674;2023-09-19T01:36:22;2.75;;;1.10;;
71916;SDS011;59793;46.506;6.674;2023-09-19T01:38:48;3.85;;;1.30;;
71916;SDS011;59793;46.506;6.674;2023-09-19T01:41:15;2.70;;;0.93;;
71916;SDS011;59793;46.506;6.674;2023-09-19T01:43:47;2.70;;;1.08;;
71916;SDS011;59793;46.506;6.674;2023-09-19T01:46:19;3.90;;;1.02;;
71916;SDS011;59793;46.506;6.674;2023-09-19T01:48:54;3.13;;;0.93;;
71916;SDS011;59793;46.506;6.674;2023-09-19T01:51:51;4.13;;;1.58;;
71916;SDS011;59793;46.506;6.674;2023-09-19T01:54:37;2.67;;;1.30;;
71916;SDS011;59793;46.506;6.674;2023-09-19T01:57:32;2.63;;;0.95;;
71916;SDS011;59793;46.506;6.674;2023-09-19T02:00:04;5.07;;;1.30;;
71916;SDS011;59793;46.506;6.674;2023-09-19T02:02:34;1.33;;;1.00;;
71916;SDS011;59793;46.506;6.674;2023-09-19T02:05:01;2.38;;;0.82;;
71916;SDS011;59793;46.506;6.674;2023-09-19T02:07:28;1.83;;;0.80;;
71916;SDS011;59793;46.506;6.674;2023-09-19T02:09:56;1.83;;;0.70;;
71916;SDS011;59793;46.506;6.674;2023-09-19T02:14:48;3.37;;;1.07;;
71916;SDS011;59793;46.506;6.674;2023-09-19T02:17:14;1.63;;;1.03;;
71916;SDS011;59793;46.506;6.674;2023-09-19T02:19:39;3.60;;;1.23;;
71916;SDS011;59793;46.506;6.674;2023-09-19T02:22:06;2.33;;;0.93;;
71916;SDS011;59793;46.506;6.674;2023-09-19T02:26:58;1.85;;;1.02;;
71916;SDS011;59793;46.506;6.674;2023-09-19T02:29:24;1.80;;;1.00;;
71916;SDS011;59793;46.506;6.674;2023-09-19T02:31:50;2.43;;;1.10;;
71916;SDS011;59793;46.506;6.674;2023-09-19T02:34:15;3.07;;;0.90;;
71916;SDS011;59793;46.506;6.674;2023-09-19T02:36:41;5.80;;;1.98;;
71916;SDS011;59793;46.506;6.674;2023-09-19T02:39:09;1.73;;;0.95;;
71916;SDS011;59793;46.506;6.674;2023-09-19T02:41:36;3.08;;;0.80;;
71916;SDS011;59793;46.506;6.674;2023-09-19T02:44:01;1.20;;;0.63;;
71916;SDS011;59793;46.506;6.674;2023-09-19T02:46:27;2.37;;;0.80;;
71916;SDS011;59793;46.506;6.674;2023-09-19T02:48:52;5.60;;;1.30;;
71916;SDS011;59793;46.506;6.674;2023-09-19T02:51:19;1.75;;;0.70;;
71916;SDS011;59793;46.506;6.674;2023-09-19T02:53:45;1.50;;;0.67;;
71916;SDS011;59793;46.506;6.674;2023-09-19T02:56:12;2.53;;;0.93;;
71916;SDS011;59793;46.506;6.674;2023-09-19T02:58:38;2.80;;;1.10;;
71916;SDS011;59793;46.506;6.674;2023-09-19T03:01:08;4.40;;;0.80;;
71916;SDS011;59793;46.506;6.674;2023-09-19T03:03:34;7.65;;;1.10;;
71916;SDS011;59793;46.506;6.674;2023-09-19T03:06:01;3.20;;;1.20;;
71916;SDS011;59793;46.506;6.674;2023-09-19T03:08:29;1.75;;;0.90;;
71916;SDS011;59793;46.506;6.674;2023-09-19T03:10:54;4.77;;;1.57;;
71916;SDS011;59793;46.506;6.674;2023-09-19T03:13:19;4.87;;;0.93;;
71916;SDS011;59793;46.506;6.674;2023-09-19T03:15:45;3.53;;;1.17;;
71916;SDS011;59793;46.506;6.674;2023-09-19T03:18:12;2.83;;;0.95;;
71916;SDS011;59793;46.506;6.674;2023-09-19T03:20:38;2.13;;;1.07;;
71916;SDS011;59793;46.506;6.674;2023-09-19T03:23:03;2.87;;;0.80;;
71916;SDS011;59793;46.506;6.674;2023-09-19T03:25:31;1.90;;;0.70;;
71916;SDS011;59793;46.506;6.674;2023-09-19T03:27:56;3.60;;;0.90;;
71916;SDS011;59793;46.506;6.674;2023-09-19T03:30:23;2.15;;;0.75;;
71916;SDS011;59793;46.506;6.674;2023-09-19T03:32:48;2.50;;;0.90;;
71916;SDS011;59793;46.506;6.674;2023-09-19T03:35:15;1.67;;;0.90;;
71916;SDS011;59793;46.506;6.674;2023-09-19T03:37:41;3.05;;;1.10;;
71916;SDS011;59793;46.506;6.674;2023-09-19T03:40:07;3.15;;;0.80;;
71916;SDS011;59793;46.506;6.674;2023-09-19T03:42:39;6.10;;;0.77;;
71916;SDS011;59793;46.506;6.674;2023-09-19T03:45:06;4.00;;;1.15;;
71916;SDS011;59793;46.506;6.674;2023-09-19T03:47:43;2.25;;;0.80;;
71916;SDS011;59793;46.506;6.674;2023-09-19T03:50:09;2.92;;;0.85;;
71916;SDS011;59793;46.506;6.674;2023-09-19T03:52:40;3.65;;;0.95;;
71916;SDS011;59793;46.506;6.674;2023-09-19T03:55:05;4.97;;;0.97;;
71916;SDS011;59793;46.506;6.674;2023-09-19T03:57:31;1.27;;;0.73;;
71916;SDS011;59793;46.506;6.674;2023-09-19T03:59:56;1.43;;;0.80;;
71916;SDS011;59793;46.506;6.674;2023-09-19T04:02:22;3.50;;;0.63;;
71916;SDS011;59793;46.506;6.674;2023-09-19T04:04:49;2.65;;;0.82;;
71916;SDS011;59793;46.506;6.674;2023-09-19T04:07:15;4.55;;;1.25;;
71916;SDS011;59793;46.506;6.674;2023-09-19T04:09:42;6.85;;;0.85;;
71916;SDS011;59793;46.506;6.674;2023-09-19T04:12:07;1.60;;;0.73;;
71916;SDS011;59793;46.506;6.674;2023-09-19T04:14:36;3.80;;;1.00;;
71916;SDS011;59793;46.506;6.674;2023-09-19T04:17:02;6.83;;;1.07;;
71916;SDS011;59793;46.506;6.674;2023-09-19T04:19:28;1.70;;;0.82;;
71916;SDS011;59793;46.506;6.674;2023-09-19T04:21:53;0.77;;;0.50;;
71916;SDS011;59793;46.506;6.674;2023-09-19T04:24:18;1.37;;;0.77;;
71916;SDS011;59793;46.506;6.674;2023-09-19T04:26:44;2.13;;;1.33;;
71916;SDS011;59793;46.506;6.674;2023-09-19T04:29:10;6.30;;;1.20;;
71916;SDS011;59793;46.506;6.674;2023-09-19T04:31:37;1.83;;;0.80;;
71916;SDS011;59793;46.506;6.674;2023-09-19T04:34:03;4.70;;;1.70;;
71916;SDS011;59793;46.506;6.674;2023-09-19T04:36:28;2.43;;;1.20;;
71916;SDS011;59793;46.506;6.674;2023-09-19T04:38:54;3.60;;;1.55;;
71916;SDS011;59793;46.506;6.674;2023-09-19T04:41:20;3.40;;;0.60;;
71916;SDS011;59793;46.506;6.674;2023-09-19T04:43:47;1.92;;;1.00;;
71916;SDS011;59793;46.506;6.674;2023-09-19T04:46:14;2.97;;;1.15;;
71916;SDS011;59793;46.506;6.674;2023-09-19T04:48:40;6.07;;;1.10;;
71916;SDS011;59793;46.506;6.674;2023-09-19T04:51:05;2.63;;;0.90;;
71916;SDS011;59793;46.506;6.674;2023-09-19T04:53:30;9.00;;;1.10;;
71916;SDS011;59793;46.506;6.674;2023-09-19T04:55:55;8.70;;;1.23;;
71916;SDS011;59793;46.506;6.674;2023-09-19T04:58:22;4.78;;;1.30;;
71916;SDS011;59793;46.506;6.674;2023-09-19T05:00:48;4.77;;;1.17;;
71916;SDS011;59793;46.506;6.674;2023-09-19T05:03:17;2.88;;;1.13;;
71916;SDS011;59793;46.506;6.674;2023-09-19T05:05:47;8.25;;;1.90;;
71916;SDS011;59793;46.506;6.674;2023-09-19T05:08:13;3.53;;;1.47;;
71916;SDS011;59793;46.506;6.674;2023-09-19T05:13:08;3.05;;;1.00;;
71916;SDS011;59793;46.506;6.674;2023-09-19T05:15:33;4.18;;;1.13;;
71916;SDS011;59793;46.506;6.674;2023-09-19T05:18:01;5.35;;;1.23;;
71916;SDS011;59793;46.506;6.674;2023-09-19T05:20:34;2.72;;;1.08;;
71916;SDS011;59793;46.506;6.674;2023-09-19T05:23:01;4.53;;;1.40;;
71916;SDS011;59793;46.506;6.674;2023-09-19T05:25:33;1.90;;;1.35;;
71916;SDS011;59793;46.506;6.674;2023-09-19T05:28:04;1.88;;;1.08;;
71916;SDS011;59793;46.506;6.674;2023-09-19T05:30:34;5.45;;;1.25;;
71916;SDS011;59793;46.506;6.674;2023-09-19T05:33:01;3.70;;;1.52;;
71916;SDS011;59793;46.506;6.674;2023-09-19T05:35:27;3.10;;;1.55;;
71916;SDS011;59793;46.506;6.674;2023-09-19T05:37:53;4.50;;;1.77;;
71916;SDS011;59793;46.506;6.674;2023-09-19T05:40:21;4.18;;;1.58;;
71916;SDS011;59793;46.506;6.674;2023-09-19T05:42:46;2.97;;;1.50;;
71916;SDS011;59793;46.506;6.674;2023-09-19T05:45:12;7.43;;;1.90;;
71916;SDS011;59793;46.506;6.674;2023-09-19T05:50:11;7.43;;;2.03;;
71916;SDS011;59793;46.506;6.674;2023-09-19T05:52:38;4.40;;;1.50;;
71916;SDS011;59793;46.506;6.674;2023-09-19T05:55:07;3.88;;;1.83;;
71916;SDS011;59793;46.506;6.674;2023-09-19T05:57:35;3.70;;;1.65;;
71916;SDS011;59793;46.506;6.674;2023-09-19T06:00:02;6.28;;;2.17;;
71916;SDS011;59793;46.506;6.674;2023-09-19T06:02:33;3.83;;;2.35;;
71916;SDS011;59793;46.506;6.674;2023-09-19T06:04:59;6.90;;;1.83;;
71916;SDS011;59793;46.506;6.674;2023-09-19T06:07:24;2.90;;;1.17;;
71916;SDS011;59793;46.506;6.674;2023-09-19T06:09:51;6.85;;;1.83;;
71916;SDS011;59793;46.506;6.674;2023-09-19T06:12:19;3.25;;;1.40;;
71916;SDS011;59793;46.506;6.674;2023-09-19T06:14:44;1.87;;;1.30;;
71916;SDS011;59793;46.506;6.674;2023-09-19T06:17:10;3.13;;;1.37;;
71916;SDS011;59793;46.506;6.674;2023-09-19T06:19:35;3.13;;;1.40;;
71916;SDS011;59793;46.506;6.674;2023-09-19T06:22:01;6.53;;;1.40;;
71916;SDS011;59793;46.506;6.674;2023-09-19T06:24:29;5.60;;;1.53;;
71916;SDS011;59793;46.506;6.674;2023-09-19T06:26:55;2.97;;;1.50;;
71916;SDS011;59793;46.506;6.674;2023-09-19T06:29:22;2.65;;;1.27;;
71916;SDS011;59793;46.506;6.674;2023-09-19T06:31:48;4.27;;;1.50;;
71916;SDS011;59793;46.506;6.674;2023-09-19T06:34:13;10.60;;;1.53;;
71916;SDS011;59793;46.506;6.674;2023-09-19T06:36:42;8.75;;;2.13;;
71916;SDS011;59793;46.506;6.674;2023-09-19T06:39:08;7.60;;;2.87;;
71916;SDS011;59793;46.506;6.674;2023-09-19T06:41:36;3.60;;;1.67;;
71916;SDS011;59793;46.506;6.674;2023-09-19T06:44:06;4.28;;;1.63;;
71916;SDS011;59793;46.506;6.674;2023-09-19T06:46:32;3.50;;;1.57;;
71916;SDS011;59793;46.506;6.674;2023-09-19T06:49:00;2.60;;;1.27;;
71916;SDS011;59793;46.506;6.674;2023-09-19T06:51:32;4.60;;;1.73;;
71916;SDS011;59793;46.506;6.674;2023-09-19T06:53:59;2.78;;;1.27;;
71916;SDS011;59793;46.506;6.674;2023-09-19T06:56:26;4.05;;;1.48;;
71916;SDS011;59793;46.506;6.674;2023-09-19T06:58:51;5.90;;;1.77;;
71916;SDS011;59793;46.506;6.674;2023-09-19T07:01:17;3.57;;;1.23;;
71916;SDS011;59793;46.506;6.674;2023-09-19T07:03:43;6.83;;;1.77;;
71916;SDS011;59793;46.506;6.674;2023-09-19T07:06:10;6.13;;;1.63;;
71916;SDS011;59793;46.506;6.674;2023-09-19T07:08:36;8.20;;;1.77;;
71916;SDS011;59793;46.506;6.674;2023-09-19T07:11:03;2.28;;;1.48;;
71916;SDS011;59793;46.506;6.674;2023-09-19T07:13:31;4.18;;;1.40;;
71916;SDS011;59793;46.506;6.674;2023-09-19T07:15:57;5.30;;;1.73;;
71916;SDS011;59793;46.506;6.674;2023-09-19T07:18:24;3.40;;;1.50;;
71916;SDS011;59793;46.506;6.674;2023-09-19T07:20:50;5.22;;;1.65;;
71916;SDS011;59793;46.506;6.674;2023-09-19T07:23:16;4.93;;;1.40;;
71916;SDS011;59793;46.506;6.674;2023-09-19T07:25:43;3.60;;;1.38;;
71916;SDS011;59793;46.506;6.674;2023-09-19T07:28:09;3.75;;;1.73;;
71916;SDS011;59793;46.506;6.674;2023-09-19T07:30:37;5.27;;;1.80;;
71916;SDS011;59793;46.506;6.674;2023-09-19T07:33:04;7.00;;;2.55;;
71916;SDS011;59793;46.506;6.674;2023-09-19T07:35:30;4.28;;;1.75;;
71916;SDS011;59793;46.506;6.674;2023-09-19T07:40:26;7.72;;;2.40;;
71916;SDS011;59793;46.506;6.674;2023-09-19T07:42:54;1.95;;;0.93;;
71916;SDS011;59793;46.506;6.674;2023-09-19T07:45:20;3.53;;;1.13;;
71916;SDS011;59793;46.506;6.674;2023-09-19T07:47:46;5.27;;;1.10;;
71916;SDS011;59793;46.506;6.674;2023-09-19T07:50:12;2.67;;;1.13;;
71916;SDS011;59793;46.506;6.674;2023-09-19T07:52:38;8.88;;;1.40;;
71916;SDS011;59793;46.506;6.674;2023-09-19T07:55:04;2.33;;;1.20;;
71916;SDS011;59793;46.506;6.674;2023-09-19T07:57:34;7.13;;;1.63;;
71916;SDS011;59793;46.506;6.674;2023-09-19T08:00:00;2.30;;;0.90;;
71916;SDS011;59793;46.506;6.674;2023-09-19T08:02:25;3.70;;;1.13;;
71916;SDS011;59793;46.506;6.674;2023-09-19T08:04:51;2.10;;;1.20;;
71916;SDS011;59793;46.506;6.674;2023-09-19T08:07:17;3.42;;;1.20;;
71916;SDS011;59793;46.506;6.674;2023-09-19T08:09:43;4.20;;;1.67;;
71916;SDS011;59793;46.506;6.674;2023-09-19T08:12:13;5.85;;;0.90;;
71916;SDS011;59793;46.506;6.674;2023-09-19T08:14:39;1.95;;;1.00;;
71916;SDS011;59793;46.506;6.674;2023-09-19T08:17:07;7.00;;;1.15;;
71916;SDS011;59793;46.506;6.674;2023-09-19T08:19:45;2.70;;;0.57;;
71916;SDS011;59793;46.506;6.674;2023-09-19T08:22:11;1.40;;;0.70;;
71916;SDS011;59793;46.506;6.674;2023-09-19T08:24:36;1.40;;;0.53;;
71916;SDS011;59793;46.506;6.674;2023-09-19T08:27:03;1.90;;;0.70;;
71916;SDS011;59793;46.506;6.674;2023-09-19T08:29:29;1.27;;;0.60;;
71916;SDS011;59793;46.506;6.674;2023-09-19T08:31:58;1.67;;;0.50;;
71916;SDS011;59793;46.506;6.674;2023-09-19T08:34:24;1.23;;;0.60;;
71916;SDS011;59793;46.506;6.674;2023-09-19T08:36:54;2.85;;;0.57;;
71916;SDS011;59793;46.506;6.674;2023-09-19T08:39:21;3.00;;;0.65;;
71916;SDS011;59793;46.506;6.674;2023-09-19T08:44:13;1.13;;;0.43;;
71916;SDS011;59793;46.506;6.674;2023-09-19T08:46:39;1.30;;;0.60;;
71916;SDS011;59793;46.506;6.674;2023-09-19T08:52:07;0.60;;;0.50;;
71916;SDS011;59793;46.506;6.674;2023-09-19T08:54:42;0.60;;;0.40;;
71916;SDS011;59793;46.506;6.674;2023-09-19T08:57:12;1.25;;;0.60;;
71916;SDS011;59793;46.506;6.674;2023-09-19T08:59:42;2.80;;;1.00;;
71916;SDS011;59793;46.506;6.674;2023-09-19T09:02:12;1.27;;;0.43;;
71916;SDS011;59793;46.506;6.674;2023-09-19T09:04:40;1.25;;;0.50;;
71916;SDS011;59793;46.506;6.674;2023-09-19T09:07:11;1.63;;;0.50;;
71916;SDS011;59793;46.506;6.674;2023-09-19T09:09:41;1.17;;;0.47;;
71916;SDS011;59793;46.506;6.674;2023-09-19T09:12:08;1.23;;;0.60;;
71916;SDS011;59793;46.506;6.674;2023-09-19T09:14:37;1.65;;;0.40;;
71916;SDS011;59793;46.506;6.674;2023-09-19T09:17:03;0.87;;;0.43;;
71916;SDS011;59793;46.506;6.674;2023-09-19T09:19:28;0.80;;;0.57;;
71916;SDS011;59793;46.506;6.674;2023-09-19T09:22:05;1.80;;;0.80;;
71916;SDS011;59793;46.506;6.674;2023-09-19T09:24:31;1.38;;;0.60;;
71916;SDS011;59793;46.506;6.674;2023-09-19T09:27:02;1.17;;;0.55;;
71916;SDS011;59793;46.506;6.674;2023-09-19T09:29:40;1.75;;;0.80;;
71916;SDS011;59793;46.506;6.674;2023-09-19T09:32:25;3.03;;;0.50;;
71916;SDS011;59793;46.506;6.674;2023-09-19T09:34:54;4.13;;;0.85;;
71916;SDS011;59793;46.506;6.674;2023-09-19T09:37:27;1.83;;;0.43;;
71916;SDS011;59793;46.506;6.674;2023-09-19T09:45:15;1.73;;;0.47;;
71916;SDS011;59793;46.506;6.674;2023-09-19T09:47:43;1.02;;;0.65;;
71916;SDS011;59793;46.506;6.674;2023-09-19T09:50:27;1.90;;;0.70;;
71916;SDS011;59793;46.506;6.674;2023-09-19T09:52:54;1.05;;;0.50;;
71916;SDS011;59793;46.506;6.674;2023-09-19T09:55:32;1.85;;;0.45;;
71916;SDS011;59793;46.506;6.674;2023-09-19T09:58:25;1.17;;;0.73;;
71916;SDS011;59793;46.506;6.674;2023-09-19T10:00:55;1.15;;;0.50;;
71916;SDS011;59793;46.506;6.674;2023-09-19T10:03:23;0.95;;;0.40;;
71916;SDS011;59793;46.506;6.674;2023-09-19T10:05:57;1.15;;;0.43;;
71916;SDS011;59793;46.506;6.674;2023-09-19T10:08:28;2.80;;;0.55;;
71916;SDS011;59793;46.506;6.674;2023-09-19T10:10:56;2.13;;;0.98;;
71916;SDS011;59793;46.506;6.674;2023-09-19T10:13:30;1.73;;;0.60;;
71916;SDS011;59793;46.506;6.674;2023-09-19T10:15:58;0.88;;;0.30;;
71916;SDS011;59793;46.506;6.674;2023-09-19T10:18:24;0.97;;;0.37;;
71916;SDS011;59793;46.506;6.674;2023-09-19T10:20:50;1.60;;;0.60;;
71916;SDS011;59793;46.506;6.674;2023-09-19T10:23:17;1.50;;;0.40;;
71916;SDS011;59793;46.506;6.674;2023-09-19T10:25:51;1.95;;;0.70;;
71916;SDS011;59793;46.506;6.674;2023-09-19T10:28:17;1.35;;;0.70;;
71916;SDS011;59793;46.506;6.674;2023-09-19T10:30:50;1.42;;;0.55;;
71916;SDS011;59793;46.506;6.674;2023-09-19T10:33:25;1.05;;;0.47;;
71916;SDS011;59793;46.506;6.674;2023-09-19T10:35:51;0.40;;;0.30;;
71916;SDS011;59793;46.506;6.674;2023-09-19T10:38:17;2.00;;;0.60;;
71916;SDS011;59793;46.506;6.674;2023-09-19T10:40:52;1.15;;;0.45;;
71916;SDS011;59793;46.506;6.674;2023-09-19T10:43:20;2.35;;;0.50;;
71916;SDS011;59793;46.506;6.674;2023-09-19T10:45:47;0.70;;;0.40;;
71916;SDS011;59793;46.506;6.674;2023-09-19T10:48:18;1.75;;;0.60;;
71916;SDS011;59793;46.506;6.674;2023-09-19T10:54:06;3.03;;;0.60;;
71916;SDS011;59793;46.506;6.674;2023-09-19T10:56:38;3.28;;;0.57;;
71916;SDS011;59793;46.506;6.674;2023-09-19T10:59:17;1.42;;;0.52;;
71916;SDS011;59793;46.506;6.674;2023-09-19T11:01:46;1.90;;;0.50;;
71916;SDS011;59793;46.506;6.674;2023-09-19T11:04:31;1.33;;;0.55;;
71916;SDS011;59793;46.506;6.674;2023-09-19T11:07:01;1.20;;;0.60;;
71916;SDS011;59793;46.506;6.674;2023-09-19T11:12:11;3.22;;;0.55;;
71916;SDS011;59793;46.506;6.674;2023-09-19T11:14:38;2.20;;;0.57;;
71916;SDS011;59793;46.506;6.674;2023-09-19T11:30:31;1.40;;;0.70;;
71916;SDS011;59793;46.506;6.674;2023-09-19T11:46:26;3.17;;;0.50;;
71916;SDS011;59793;46.506;6.674;2023-09-19T11:48:53;1.67;;;0.60;;
71916;SDS011;59793;46.506;6.674;2023-09-19T11:53:52;2.28;;;0.68;;
71916;SDS011;59793;46.506;6.674;2023-09-19T11:56:22;0.68;;;0.40;;
71916;SDS011;59793;46.506;6.674;2023-09-19T11:58:51;4.40;;;0.70;;
71916;SDS011;59793;46.506;6.674;2023-09-19T12:01:30;1.85;;;0.82;;
71916;SDS011;59793;46.506;6.674;2023-09-19T12:03:58;3.42;;;0.98;;
71916;SDS011;59793;46.506;6.674;2023-09-19T12:06:27;2.50;;;0.68;;
71916;SDS011;59793;46.506;6.674;2023-09-19T12:08:54;2.08;;;0.75;;
71916;SDS011;59793;46.506;6.674;2023-09-19T12:11:22;2.58;;;0.73;;
71916;SDS011;59793;46.506;6.674;2023-09-19T12:13:48;1.58;;;0.57;;
71916;SDS011;59793;46.506;6.674;2023-09-19T12:16:17;1.30;;;0.77;;
71916;SDS011;59793;46.506;6.674;2023-09-19T12:18:47;2.92;;;0.50;;
71916;SDS011;59793;46.506;6.674;2023-09-19T12:24:13;1.25;;;0.70;;
71916;SDS011;59793;46.506;6.674;2023-09-19T12:26:39;1.67;;;0.70;;
71916;SDS011;59793;46.506;6.674;2023-09-19T12:29:10;1.13;;;0.63;;
71916;SDS011;59793;46.506;6.674;2023-09-19T12:34:31;2.30;;;0.60;;
71916;SDS011;59793;46.506;6.674;2023-09-19T12:37:16;1.73;;;0.77;;
71916;SDS011;59793;46.506;6.674;2023-09-19T12:39:48;1.23;;;0.68;;
71916;SDS011;59793;46.506;6.674;2023-09-19T12:42:17;3.55;;;1.02;;
71916;SDS011;59793;46.506;6.674;2023-09-19T12:44:50;0.95;;;0.40;;
71916;SDS011;59793;46.506;6.674;2023-09-19T12:47:22;1.67;;;0.63;;
71916;SDS011;59793;46.506;6.674;2023-09-19T12:50:04;1.23;;;0.50;;
71916;SDS011;59793;46.506;6.674;2023-09-19T12:52:35;2.65;;;0.80;;
71916;SDS011;59793;46.506;6.674;2023-09-19T12:55:01;1.73;;;0.60;;
71916;SDS011;59793;46.506;6.674;2023-09-19T12:57:27;3.08;;;0.85;;
71916;SDS011;59793;46.506;6.674;2023-09-19T12:59:53;1.55;;;0.60;;
71916;SDS011;59793;46.506;6.674;2023-09-19T13:04:55;1.80;;;0.70;;
71916;SDS011;59793;46.506;6.674;2023-09-19T13:07:40;3.75;;;0.80;;
71916;SDS011;59793;46.506;6.674;2023-09-19T13:10:09;2.45;;;0.73;;
71916;SDS011;59793;46.506;6.674;2023-09-19T13:15:09;4.80;;;0.85;;
71916;SDS011;59793;46.506;6.674;2023-09-19T13:17:43;2.55;;;0.95;;
71916;SDS011;59793;46.506;6.674;2023-09-19T13:20:20;1.58;;;0.60;;
71916;SDS011;59793;46.506;6.674;2023-09-19T13:22:57;2.42;;;0.65;;
71916;SDS011;59793;46.506;6.674;2023-09-19T13:25:33;1.90;;;0.60;;
71916;SDS011;59793;46.506;6.674;2023-09-19T13:30:29;2.47;;;1.00;;
71916;SDS011;59793;46.506;6.674;2023-09-19T13:33:05;1.45;;;0.68;;
71916;SDS011;59793;46.506;6.674;2023-09-19T13:35:32;1.48;;;0.80;;
71916;SDS011;59793;46.506;6.674;2023-09-19T13:37:57;1.83;;;0.90;;
71916;SDS011;59793;46.506;6.674;2023-09-19T13:40:23;1.52;;;0.52;;
71916;SDS011;59793;46.506;6.674;2023-09-19T13:42:49;3.20;;;0.80;;
71916;SDS011;59793;46.506;6.674;2023-09-19T13:45:18;3.10;;;0.95;;
71916;SDS011;59793;46.506;6.674;2023-09-19T13:47:47;1.48;;;0.63;;
71916;SDS011;59793;46.506;6.674;2023-09-19T13:50:13;2.03;;;0.60;;
71916;SDS011;59793;46.506;6.674;2023-09-19T13:52:39;1.63;;;0.63;;
71916;SDS011;59793;46.506;6.674;2023-09-19T13:55:04;2.10;;;0.70;;
71916;SDS011;59793;46.506;6.674;2023-09-19T13:57:31;2.67;;;0.93;;
71916;SDS011;59793;46.506;6.674;2023-09-19T13:59:58;2.05;;;0.68;;
71916;SDS011;59793;46.506;6.674;2023-09-19T14:02:23;2.97;;;1.57;;
71916;SDS011;59793;46.506;6.674;2023-09-19T14:04:49;2.22;;;0.90;;
71916;SDS011;59793;46.506;6.674;2023-09-19T14:07:15;2.00;;;0.80;;
71916;SDS011;59793;46.506;6.674;2023-09-19T14:09:42;1.48;;;0.60;;
71916;SDS011;59793;46.506;6.674;2023-09-19T14:12:08;2.30;;;0.70;;
71916;SDS011;59793;46.506;6.674;2023-09-19T14:14:34;2.03;;;0.60;;
71916;SDS011;59793;46.506;6.674;2023-09-19T14:17:05;1.73;;;0.60;;
71916;SDS011;59793;46.506;6.674;2023-09-19T14:19:32;1.77;;;0.60;;
71916;SDS011;59793;46.506;6.674;2023-09-19T14:21:59;1.65;;;0.70;;
71916;SDS011;59793;46.506;6.674;2023-09-19T14:24:28;2.38;;;0.60;;
71916;SDS011;59793;46.506;6.674;2023-09-19T14:26:53;1.35;;;0.60;;
71916;SDS011;59793;46.506;6.674;2023-09-19T14:29:19;1.27;;;0.60;;
71916;SDS011;59793;46.506;6.674;2023-09-19T14:31:44;3.33;;;0.95;;
71916;SDS011;59793;46.506;6.674;2023-09-19T14:34:18;2.30;;;0.90;;
71916;SDS011;59793;46.506;6.674;2023-09-19T14:36:44;2.15;;;0.60;;
71916;SDS011;59793;46.506;6.674;2023-09-19T14:39:11;4.63;;;1.00;;
71916;SDS011;59793;46.506;6.674;2023-09-19T14:41:36;1.88;;;0.75;;
71916;SDS011;59793;46.506;6.674;2023-09-19T14:44:02;1.20;;;0.50;;
71916;SDS011;59793;46.506;6.674;2023-09-19T14:46:30;1.75;;;0.63;;
71916;SDS011;59793;46.506;6.674;2023-09-19T14:48:57;1.63;;;0.87;;
71916;SDS011;59793;46.506;6.674;2023-09-19T14:51:24;4.05;;;0.70;;
71916;SDS011;59793;46.506;6.674;2023-09-19T14:53:50;1.75;;;0.80;;
71916;SDS011;59793;46.506;6.674;2023-09-19T14:56:18;1.92;;;0.77;;
71916;SDS011;59793;46.506;6.674;2023-09-19T14:58:45;1.55;;;0.77;;
71916;SDS011;59793;46.506;6.674;2023-09-19T15:01:10;2.83;;;0.80;;
71916;SDS011;59793;46.506;6.674;2023-09-19T15:03:39;3.13;;;0.80;;
71916;SDS011;59793;46.506;6.674;2023-09-19T15:06:07;2.28;;;0.75;;
71916;SDS011;59793;46.506;6.674;2023-09-19T15:08:36;1.60;;;0.70;;
71916;SDS011;59793;46.506;6.674;2023-09-19T15:11:05;3.30;;;0.70;;
71916;SDS011;59793;46.506;6.674;2023-09-19T15:13:32;1.85;;;0.77;;
71916;SDS011;59793;46.506;6.674;2023-09-19T15:16:04;2.75;;;0.80;;
71916;SDS011;59793;46.506;6.674;2023-09-19T15:18:34;2.70;;;0.93;;
71916;SDS011;59793;46.506;6.674;2023-09-19T15:21:04;2.60;;;0.90;;
71916;SDS011;59793;46.506;6.674;2023-09-19T15:23:31;1.33;;;0.80;;
71916;SDS011;59793;46.506;6.674;2023-09-19T15:25:59;1.85;;;0.60;;
71916;SDS011;59793;46.506;6.674;2023-09-19T15:28:28;3.05;;;0.45;;
71916;SDS011;59793;46.506;6.674;2023-09-19T15:31:03;6.50;;;1.55;;
71916;SDS011;59793;46.506;6.674;2023-09-19T15:33:29;2.78;;;0.50;;
71916;SDS011;59793;46.506;6.674;2023-09-19T15:38:29;1.52;;;0.70;;
71916;SDS011;59793;46.506;6.674;2023-09-19T15:40:55;1.70;;;0.80;;
71916;SDS011;59793;46.506;6.674;2023-09-19T15:43:20;1.53;;;0.80;;
71916;SDS011;59793;46.506;6.674;2023-09-19T15:45:47;1.95;;;0.82;;
71916;SDS011;59793;46.506;6.674;2023-09-19T15:48:14;2.08;;;0.60;;
71916;SDS011;59793;46.506;6.674;2023-09-19T15:50:41;1.88;;;1.00;;
71916;SDS011;59793;46.506;6.674;2023-09-19T15:53:08;2.95;;;1.10;;
71916;SDS011;59793;46.506;6.674;2023-09-19T15:55:40;2.88;;;0.93;;
71916;SDS011;59793;46.506;6.674;2023-09-19T15:58:06;1.88;;;0.70;;
71916;SDS011;59793;46.506;6.674;2023-09-19T16:00:32;1.55;;;0.68;;
71916;SDS011;59793;46.506;6.674;2023-09-19T16:03:01;2.53;;;0.95;;
71916;SDS011;59793;46.506;6.674;2023-09-19T16:05:27;2.13;;;1.30;;
71916;SDS011;59793;46.506;6.674;2023-09-19T16:07:52;4.82;;;0.85;;
71916;SDS011;59793;46.506;6.674;2023-09-19T16:10:18;1.77;;;0.80;;
71916;SDS011;59793;46.506;6.674;2023-09-19T16:12:43;3.80;;;0.60;;
71916;SDS011;59793;46.506;6.674;2023-09-19T16:15:08;2.97;;;1.03;;
71916;SDS011;59793;46.506;6.674;2023-09-19T16:17:46;0.93;;;0.70;;